createdAt,value
2019-01-24T00:01:51.378Z,30.43
2019-01-24T00:11:54.992Z,34.73
2019-01-24T00:21:59.047Z,26.73
2019-01-24T00:32:02.698Z,23.10
2019-01-24T00:42:06.354Z,27.70
2019-01-24T00:52:09.983Z,28.40
2019-01-24T01:02:14.344Z,22.33
2019-01-24T01:12:17.973Z,29.17
2019-01-24T01:22:21.606Z,24.00
2019-01-24T01:32:25.231Z,23.33
2019-01-24T01:42:29.087Z,22.10
2019-01-24T01:52:32.666Z,19.53
2019-01-24T02:02:36.275Z,18.63
2019-01-24T02:12:39.897Z,23.13
2019-01-24T02:22:43.553Z,20.80
2019-01-24T02:32:47.957Z,21.43
2019-01-24T02:42:51.558Z,21.13
2019-01-24T02:52:55.171Z,19.33
2019-01-24T03:02:58.810Z,19.57
2019-01-24T03:13:02.427Z,21.80
2019-01-24T03:23:06.048Z,19.50
2019-01-24T03:33:09.633Z,19.77
2019-01-24T03:43:15.550Z,17.80
2019-01-24T03:53:19.132Z,20.87
2019-01-24T04:03:22.732Z,16.73
2019-01-24T04:13:27.366Z,20.00
2019-01-24T04:23:31.559Z,15.17
2019-01-24T04:33:35.195Z,12.10
2019-01-24T04:43:38.826Z,13.03
2019-01-24T04:53:42.427Z,10.13
2019-01-24T05:03:46.023Z,12.90
2019-01-24T05:13:49.654Z,13.93
2019-01-24T05:23:53.267Z,11.83
2019-01-24T05:33:56.863Z,10.57
2019-01-24T05:44:00.452Z,8.67
2019-01-24T05:54:04.052Z,8.50
2019-01-24T06:04:09.743Z,9.47
2019-01-24T06:14:14.415Z,9.37
2019-01-24T06:24:20.086Z,11.90
2019-01-24T06:34:23.683Z,12.50
2019-01-24T06:44:27.274Z,10.13
2019-01-24T06:54:30.917Z,11.03
2019-01-24T07:04:34.514Z,15.03
2019-01-24T07:14:38.113Z,12.90
2019-01-24T07:24:41.836Z,11.70
2019-01-24T07:34:45.419Z,8.00
2019-01-24T07:44:49.009Z,7.73
2019-01-24T07:54:52.618Z,14.03
2019-01-24T08:04:56.207Z,11.60
2019-01-24T08:14:59.810Z,10.93
2019-01-24T08:25:03.444Z,12.50
2019-01-24T08:35:07.192Z,15.83
2019-01-24T08:45:11.205Z,14.87
2019-01-24T08:55:21.943Z,13.77
2019-01-24T09:05:25.534Z,12.30
2019-01-24T09:15:29.314Z,15.03
2019-01-24T09:25:33.406Z,15.43
2019-01-24T09:35:37.018Z,14.47
2019-01-24T09:45:40.631Z,14.97
2019-01-24T09:55:44.237Z,14.33
2019-01-24T10:05:47.835Z,14.80
2019-01-24T10:15:51.438Z,15.50
2019-01-24T10:25:55.039Z,15.10
2019-01-24T10:35:58.662Z,14.07
2019-01-24T10:46:02.256Z,11.63
2019-01-24T10:56:05.916Z,14.73
2019-01-24T11:06:09.502Z,14.10
2019-01-24T11:16:13.099Z,16.80
2019-01-24T11:26:16.694Z,16.60
2019-01-24T11:36:20.280Z,13.63
2019-01-24T11:46:23.863Z,14.63
2019-01-24T11:56:27.469Z,9.60
2019-01-24T12:06:31.070Z,13.30
2019-01-24T12:16:34.667Z,12.67
2019-01-24T12:26:38.258Z,15.27
2019-01-24T12:36:41.849Z,11.97
2019-01-24T12:46:45.422Z,10.83
2019-01-24T12:56:49.003Z,9.70
2019-01-24T13:06:52.612Z,10.33
2019-01-24T13:16:56.190Z,10.90
2019-01-24T13:26:59.777Z,10.30
2019-01-24T13:37:03.364Z,12.00
2019-01-24T13:47:06.959Z,13.83
2019-01-24T13:57:10.537Z,13.47
2019-01-24T14:07:14.180Z,12.73
2019-01-24T14:17:17.782Z,13.00
2019-01-24T14:27:21.811Z,10.33
2019-01-24T14:37:26.567Z,15.73
2019-01-24T14:47:30.158Z,11.40
2019-01-24T14:57:33.857Z,11.07
2019-01-24T15:07:37.591Z,12.83
2019-01-24T15:17:41.178Z,12.30
2019-01-24T15:27:44.766Z,10.23
2019-01-24T15:37:54.386Z,8.93
2019-01-24T15:47:53.774Z,11.80
2019-01-24T15:57:57.418Z,9.57
2019-01-24T16:08:01.786Z,13.03
2019-01-24T16:18:08.278Z,8.57
2019-01-24T16:28:12.873Z,10.00
2019-01-24T16:38:16.458Z,11.07
2019-01-24T16:48:20.046Z,8.83
2019-01-24T16:58:23.641Z,11.30
2019-01-24T17:08:27.242Z,8.53
2019-01-24T17:18:30.873Z,12.50
2019-01-24T17:28:40.530Z,13.67
2019-01-24T17:38:44.114Z,11.40
2019-01-24T17:48:48.758Z,10.83
2019-01-24T17:58:53.426Z,10.70
2019-01-24T18:08:57.017Z,12.57
2019-01-24T18:19:00.630Z,12.00
2019-01-24T18:29:04.262Z,12.10
2019-01-24T18:39:10.158Z,10.03
2019-01-24T18:49:13.750Z,11.63
2019-01-24T18:59:19.445Z,12.10
2019-01-24T19:09:25.130Z,9.37
2019-01-24T19:19:28.757Z,6.10
2019-01-24T19:29:32.339Z,4.57
2019-01-24T19:39:35.951Z,6.40
2019-01-24T19:49:41.619Z,11.93
2019-01-24T19:59:45.227Z,12.17
2019-01-24T20:09:48.814Z,7.70
2019-01-24T20:19:52.661Z,7.23
2019-01-24T20:29:56.470Z,11.40
2019-01-24T20:40:00.050Z,7.57
2019-01-24T20:50:03.687Z,6.40
2019-01-24T21:00:13.726Z,8.13
2019-01-24T21:10:19.428Z,7.17
2019-01-24T21:20:24.806Z,3.90
2019-01-24T21:30:35.591Z,7.47
2019-01-24T21:40:39.202Z,8.47
2019-01-24T21:50:42.870Z,7.60
2019-01-24T22:00:46.542Z,5.57
2019-01-24T22:10:50.143Z,10.50
2019-01-24T22:20:55.748Z,13.33
2019-01-24T22:31:00.335Z,10.80
2019-01-24T22:41:03.926Z,6.87
2019-01-24T22:51:07.550Z,5.30
2019-01-24T23:01:32.466Z,5.97
2019-01-24T23:11:36.152Z,4.70
2019-01-24T23:21:39.726Z,3.87
2019-01-24T23:31:43.333Z,5.40
2019-01-24T23:41:46.925Z,7.00
2019-01-24T23:51:50.502Z,5.57
